Time;durP1;ratioP1;P1;durP2;ratioP2;P2;SDS_P1;SDS_P2;PMS_P1;PMS_P2;Temp;Humidity;BMP_temperature;BMP_pressure;BME280_temperature;BME280_humidity;BME280_pressure;Samples;Min_cycle;Max_cycle;Signal;HPM_P1;HPM_P2
2021/08/14 00:00:05;;;;;;;12.4;7.55;;;;;;;19.78;97.01758;95858.98;;;;
2021/08/14 00:01:06;;;;;;;12.4;7.55;;;;;;;19.78;97.01758;95858.98;;;;
2021/08/14 00:02:07;;;;;;;12.4;7.55;;;;;;;19.78;97.01758;95858.98;;;;
2021/08/14 00:03:07;;;;;;;12.4;7.55;;;;;;;19.78;97.01758;95858.98;;;;
2021/08/14 00:04:08;;;;;;;13.65;8.5;;;;;;;19.92;97.32031;95847.28;;;;
2021/08/14 00:05:09;;;;;;;13.65;8.5;;;;;;;19.92;97.32031;95847.28;;;;
2021/08/14 00:06:11;;;;;;;13.65;8.5;;;;;;;19.92;97.32031;95847.28;;;;
2021/08/14 00:07:12;;;;;;;13.65;8.5;;;;;;;19.92;97.32031;95847.28;;;;
2021/08/14 00:08:12;;;;;;;13.65;8.5;;;;;;;19.92;97.32031;95847.28;;;;
2021/08/14 00:09:13;;;;;;;13.65;8.5;;;;;;;19.92;97.32031;95847.28;;;;
2021/08/14 00:10:13;;;;;;;13.65;8.5;;;;;;;19.92;97.32031;95847.28;;;;
2021/08/14 00:11:14;;;;;;;13.65;8.5;;;;;;;19.92;97.32031;95847.28;;;;
2021/08/14 00:12:15;;;;;;;13.65;8.5;;;;;;;19.92;97.32031;95847.28;;;;
2021/08/14 00:13:15;;;;;;;13.65;8.5;;;;;;;19.92;97.32031;95847.28;;;;
2021/08/14 00:14:16;;;;;;;13.65;8.5;;;;;;;19.92;97.32031;95847.28;;;;
2021/08/14 00:15:16;;;;;;;13.6;8.299998;;;;;;;19.91;97.43555;95853.88;;;;
2021/08/14 00:16:17;;;;;;;13.6;8.299998;;;;;;;19.91;97.43555;95853.88;;;;
2021/08/14 00:17:19;;;;;;;13.6;8.299998;;;;;;;19.91;97.43555;95853.88;;;;
2021/08/14 00:18:19;;;;;;;13.6;8.299998;;;;;;;19.91;97.43555;95853.88;;;;
2021/08/14 00:19:20;;;;;;;13.6;8.299998;;;;;;;19.91;97.43555;95853.88;;;;
2021/08/14 00:20:20;;;;;;;13.6;8.299998;;;;;;;19.91;97.43555;95853.88;;;;
2021/08/14 00:21:21;;;;;;;13.6;8.299998;;;;;;;19.91;97.43555;95853.88;;;;
2021/08/14 00:22:22;;;;;;;13.6;8.299998;;;;;;;19.91;97.43555;95853.88;;;;
2021/08/14 00:23:22;;;;;;;13.6;8.299998;;;;;;;19.91;97.43555;95853.88;;;;
2021/08/14 00:24:23;;;;;;;13.6;8.299998;;;;;;;19.91;97.43555;95853.88;;;;
2021/08/14 00:25:23;;;;;;;12.25;8.249998;;;;;;;19.89;98.19043;95847.02;;;;
2021/08/14 00:26:24;;;;;;;12.25;8.249998;;;;;;;19.89;98.19043;95847.02;;;;
2021/08/14 00:27:24;;;;;;;12.25;8.249998;;;;;;;19.89;98.19043;95847.02;;;;
2021/08/14 00:28:25;;;;;;;12.25;8.249998;;;;;;;19.89;98.19043;95847.02;;;;
2021/08/14 00:29:26;;;;;;;12.25;8.249998;;;;;;;19.89;98.19043;95847.02;;;;
2021/08/14 00:30:26;;;;;;;12.25;8.249998;;;;;;;19.89;98.19043;95847.02;;;;
2021/08/14 00:31:27;;;;;;;12.25;8.249998;;;;;;;19.89;98.19043;95847.02;;;;
2021/08/14 00:32:27;;;;;;;12.25;8.249998;;;;;;;19.89;98.19043;95847.02;;;;
2021/08/14 00:33:28;;;;;;;12.25;8.249998;;;;;;;19.89;98.19043;95847.02;;;;
2021/08/14 00:34:28;;;;;;;12.25;8.249998;;;;;;;19.89;98.19043;95847.02;;;;
2021/08/14 00:35:29;;;;;;;12.25;8.249998;;;;;;;19.89;98.19043;95847.02;;;;
2021/08/14 00:36:29;;;;;;;13.15;8.200001;;;;;;;19.84;98.66895;95840.2;;;;
2021/08/14 00:37:30;;;;;;;13.15;8.200001;;;;;;;19.84;98.66895;95840.2;;;;
2021/08/14 00:38:31;;;;;;;13.15;8.200001;;;;;;;19.84;98.66895;95840.2;;;;
2021/08/14 00:39:31;;;;;;;13.15;8.200001;;;;;;;19.84;98.66895;95840.2;;;;
2021/08/14 00:40:32;;;;;;;13.15;8.200001;;;;;;;19.84;98.66895;95840.2;;;;
2021/08/14 00:41:32;;;;;;;13.15;8.200001;;;;;;;19.84;98.66895;95840.2;;;;
2021/08/14 00:42:33;;;;;;;13.15;8.200001;;;;;;;19.84;98.66895;95840.2;;;;
2021/08/14 00:43:35;;;;;;;13.15;8.200001;;;;;;;19.84;98.66895;95840.2;;;;
2021/08/14 00:44:35;;;;;;;13.15;8.200001;;;;;;;19.84;98.66895;95840.2;;;;
2021/08/14 00:45:36;;;;;;;13.15;8.200001;;;;;;;19.84;98.66895;95840.2;;;;
2021/08/14 00:46:40;;;;;;;12.95;7.849999;;;;;;;19.84;98.79883;95828.28;;;;
2021/08/14 00:47:41;;;;;;;12.95;7.849999;;;;;;;19.84;98.79883;95828.28;;;;
2021/08/14 00:48:42;;;;;;;12.95;7.849999;;;;;;;19.84;98.79883;95828.28;;;;
2021/08/14 00:49:42;;;;;;;12.95;7.849999;;;;;;;19.84;98.79883;95828.28;;;;
2021/08/14 00:50:43;;;;;;;12.95;7.849999;;;;;;;19.84;98.79883;95828.28;;;;
2021/08/14 00:51:43;;;;;;;12.95;7.849999;;;;;;;19.84;98.79883;95828.28;;;;
2021/08/14 00:52:44;;;;;;;12.95;7.849999;;;;;;;19.84;98.79883;95828.28;;;;
2021/08/14 00:53:44;;;;;;;12.95;7.849999;;;;;;;19.84;98.79883;95828.28;;;;
2021/08/14 00:54:45;;;;;;;12.95;7.849999;;;;;;;19.84;98.79883;95828.28;;;;
2021/08/14 00:55:46;;;;;;;12.95;7.849999;;;;;;;19.84;98.79883;95828.28;;;;
2021/08/14 00:56:47;;;;;;;12.95;7.849999;;;;;;;19.84;98.79883;95828.28;;;;
2021/08/14 00:57:48;;;;;;;10.65;7.950001;;;;;;;19.71;99.09473;95835.3;;;;
2021/08/14 00:58:49;;;;;;;10.65;7.950001;;;;;;;19.71;99.09473;95835.3;;;;
2021/08/14 00:59:51;;;;;;;10.65;7.950001;;;;;;;19.71;99.09473;95835.3;;;;
2021/08/14 01:00:55;;;;;;;10.65;7.950001;;;;;;;19.71;99.09473;95835.3;;;;
2021/08/14 01:01:55;;;;;;;10.65;7.950001;;;;;;;19.71;99.09473;95835.3;;;;
2021/08/14 01:02:56;;;;;;;10.65;7.950001;;;;;;;19.71;99.09473;95835.3;;;;
2021/08/14 01:03:57;;;;;;;10.65;7.950001;;;;;;;19.71;99.09473;95835.3;;;;
2021/08/14 01:04:57;;;;;;;10.65;7.950001;;;;;;;19.71;99.09473;95835.3;;;;
2021/08/14 01:05:58;;;;;;;10.65;7.950001;;;;;;;19.71;99.09473;95835.3;;;;
2021/08/14 01:06:58;;;;;;;10.65;7.950001;;;;;;;19.71;99.09473;95835.3;;;;
2021/08/14 01:07:59;;;;;;;11.8;8.100002;;;;;;;19.55;99.77539;95843.72;;;;
2021/08/14 01:09:00;;;;;;;11.8;8.100002;;;;;;;19.55;99.77539;95843.72;;;;
2021/08/14 01:10:00;;;;;;;11.8;8.100002;;;;;;;19.55;99.77539;95843.72;;;;
2021/08/14 01:11:01;;;;;;;11.8;8.100002;;;;;;;19.55;99.77539;95843.72;;;;
2021/08/14 01:12:02;;;;;;;11.8;8.100002;;;;;;;19.55;99.77539;95843.72;;;;
2021/08/14 01:13:03;;;;;;;11.8;8.100002;;;;;;;19.55;99.77539;95843.72;;;;
2021/08/14 01:14:05;;;;;;;11.8;8.100002;;;;;;;19.55;99.77539;95843.72;;;;
2021/08/14 01:15:06;;;;;;;11.8;8.100002;;;;;;;19.55;99.77539;95843.72;;;;
2021/08/14 01:16:08;;;;;;;11.8;8.100002;;;;;;;19.55;99.77539;95843.72;;;;
2021/08/14 01:17:09;;;;;;;11.8;8.100002;;;;;;;19.55;99.77539;95843.72;;;;
2021/08/14 01:18:10;;;;;;;11.8;8.100002;;;;;;;19.55;99.77539;95843.72;;;;
2021/08/14 01:19:11;;;;;;;11.6;7.900001;;;;;;;19.49;100;95843.03;;;;
2021/08/14 01:20:14;;;;;;;11.6;7.900001;;;;;;;19.49;100;95843.03;;;;
2021/08/14 01:21:14;;;;;;;11.6;7.900001;;;;;;;19.49;100;95843.03;;;;
2021/08/14 01:22:16;;;;;;;11.6;7.900001;;;;;;;19.49;100;95843.03;;;;
2021/08/14 01:23:16;;;;;;;11.6;7.900001;;;;;;;19.49;100;95843.03;;;;
2021/08/14 01:24:17;;;;;;;11.6;7.900001;;;;;;;19.49;100;95843.03;;;;
2021/08/14 01:25:18;;;;;;;11.6;7.900001;;;;;;;19.49;100;95843.03;;;;
2021/08/14 01:26:20;;;;;;;11.6;7.900001;;;;;;;19.49;100;95843.03;;;;
2021/08/14 01:27:23;;;;;;;11.6;7.900001;;;;;;;19.49;100;95843.03;;;;
2021/08/14 01:28:23;;;;;;;11.6;7.900001;;;;;;;19.49;100;95843.03;;;;
2021/08/14 01:29:23;;;;;;;14.2;8.550001;;;;;;;19.36;100;95847.74;;;;
2021/08/14 01:30:24;;;;;;;14.2;8.550001;;;;;;;19.36;100;95847.74;;;;
2021/08/14 01:31:25;;;;;;;14.2;8.550001;;;;;;;19.36;100;95847.74;;;;
2021/08/14 01:32:25;;;;;;;14.2;8.550001;;;;;;;19.36;100;95847.74;;;;
2021/08/14 01:33:27;;;;;;;14.2;8.550001;;;;;;;19.36;100;95847.74;;;;
2021/08/14 01:34:30;;;;;;;14.2;8.550001;;;;;;;19.36;100;95847.74;;;;
2021/08/14 01:35:30;;;;;;;14.2;8.550001;;;;;;;19.36;100;95847.74;;;;
2021/08/14 01:36:31;;;;;;;14.2;8.550001;;;;;;;19.36;100;95847.74;;;;
2021/08/14 01:37:31;;;;;;;14.2;8.550001;;;;;;;19.36;100;95847.74;;;;
2021/08/14 01:38:33;;;;;;;14.2;8.550001;;;;;;;19.36;100;95847.74;;;;
2021/08/14 01:39:34;;;;;;;14.2;8.550001;;;;;;;19.36;100;95847.74;;;;
2021/08/14 01:40:35;;;;;;;11.8;8.749998;;;;;;;19.31;100;95847.19;;;;
2021/08/14 01:41:36;;;;;;;11.8;8.749998;;;;;;;19.31;100;95847.19;;;;
2021/08/14 01:42:37;;;;;;;11.8;8.749998;;;;;;;19.31;100;95847.19;;;;
2021/08/14 01:43:38;;;;;;;11.8;8.749998;;;;;;;19.31;100;95847.19;;;;
2021/08/14 01:44:57;;;;;;;11.8;8.749998;;;;;;;19.31;100;95847.19;;;;
2021/08/14 01:45:58;;;;;;;11.8;8.749998;;;;;;;19.31;100;95847.19;;;;
2021/08/14 01:46:58;;;;;;;11.8;8.749998;;;;;;;19.31;100;95847.19;;;;
2021/08/14 01:47:59;;;;;;;11.8;8.749998;;;;;;;19.31;100;95847.19;;;;
2021/08/14 01:49:00;;;;;;;11.8;8.749998;;;;;;;19.31;100;95847.19;;;;
2021/08/14 01:50:01;;;;;;;11.8;8.749998;;;;;;;19.31;100;95847.19;;;;
2021/08/14 01:51:01;;;;;;;15.9;8.8;;;;;;;19.25;100;95845.92;;;;
2021/08/14 01:52:02;;;;;;;15.9;8.8;;;;;;;19.25;100;95845.92;;;;
2021/08/14 01:53:08;;;;;;;15.9;8.8;;;;;;;19.25;100;95845.92;;;;
2021/08/14 01:54:09;;;;;;;15.9;8.8;;;;;;;19.25;100;95845.92;;;;
2021/08/14 01:55:10;;;;;;;15.9;8.8;;;;;;;19.25;100;95845.92;;;;
2021/08/14 01:56:10;;;;;;;15.9;8.8;;;;;;;19.25;100;95845.92;;;;
2021/08/14 01:57:11;;;;;;;15.9;8.8;;;;;;;19.25;100;95845.92;;;;
2021/08/14 01:58:12;;;;;;;15.9;8.8;;;;;;;19.25;100;95845.92;;;;
2021/08/14 01:59:13;;;;;;;15.9;8.8;;;;;;;19.25;100;95845.92;;;;
2021/08/14 02:00:13;;;;;;;15.9;8.8;;;;;;;19.25;100;95845.92;;;;
2021/08/14 02:01:15;;;;;;;15.9;8.8;;;;;;;19.25;100;95845.92;;;;
2021/08/14 02:02:16;;;;;;;12.45;8.6;;;;;;;19.21;100;95836.22;;;;
2021/08/14 02:03:16;;;;;;;12.45;8.6;;;;;;;19.21;100;95836.22;;;;
2021/08/14 02:04:17;;;;;;;12.45;8.6;;;;;;;19.21;100;95836.22;;;;
2021/08/14 02:05:17;;;;;;;12.45;8.6;;;;;;;19.21;100;95836.22;;;;
2021/08/14 02:06:18;;;;;;;12.45;8.6;;;;;;;19.21;100;95836.22;;;;
2021/08/14 02:07:21;;;;;;;12.45;8.6;;;;;;;19.21;100;95836.22;;;;
2021/08/14 02:08:21;;;;;;;12.45;8.6;;;;;;;19.21;100;95836.22;;;;
2021/08/14 02:09:22;;;;;;;12.45;8.6;;;;;;;19.21;100;95836.22;;;;
2021/08/14 02:10:22;;;;;;;12.45;8.6;;;;;;;19.21;100;95836.22;;;;
2021/08/14 02:11:23;;;;;;;12.45;8.6;;;;;;;19.21;100;95836.22;;;;
2021/08/14 02:12:26;;;;;;;14.55;8.700001;;;;;;;19.23;100;95849.89;;;;
2021/08/14 02:13:26;;;;;;;14.55;8.700001;;;;;;;19.23;100;95849.89;;;;
2021/08/14 02:14:28;;;;;;;14.55;8.700001;;;;;;;19.23;100;95849.89;;;;
2021/08/14 02:15:29;;;;;;;14.55;8.700001;;;;;;;19.23;100;95849.89;;;;
2021/08/14 02:16:30;;;;;;;14.55;8.700001;;;;;;;19.23;100;95849.89;;;;
2021/08/14 02:17:31;;;;;;;14.55;8.700001;;;;;;;19.23;100;95849.89;;;;
2021/08/14 02:18:32;;;;;;;14.55;8.700001;;;;;;;19.23;100;95849.89;;;;
2021/08/14 02:19:32;;;;;;;14.55;8.700001;;;;;;;19.23;100;95849.89;;;;
2021/08/14 02:20:33;;;;;;;14.55;8.700001;;;;;;;19.23;100;95849.89;;;;
2021/08/14 02:21:33;;;;;;;14.55;8.700001;;;;;;;19.23;100;95849.89;;;;
2021/08/14 02:22:34;;;;;;;14.55;8.700001;;;;;;;19.23;100;95849.89;;;;
2021/08/14 02:23:34;;;;;;;14.8;8.6;;;;;;;19.27;100;95850.58;;;;
2021/08/14 02:24:35;;;;;;;14.8;8.6;;;;;;;19.27;100;95850.58;;;;
2021/08/14 02:25:36;;;;;;;14.8;8.6;;;;;;;19.27;100;95850.58;;;;
2021/08/14 02:26:36;;;;;;;14.8;8.6;;;;;;;19.27;100;95850.58;;;;
2021/08/14 02:27:37;;;;;;;14.8;8.6;;;;;;;19.27;100;95850.58;;;;
2021/08/14 02:28:37;;;;;;;14.8;8.6;;;;;;;19.27;100;95850.58;;;;
2021/08/14 02:29:38;;;;;;;14.8;8.6;;;;;;;19.27;100;95850.58;;;;
2021/08/14 02:30:38;;;;;;;14.8;8.6;;;;;;;19.27;100;95850.58;;;;
2021/08/14 02:31:39;;;;;;;14.8;8.6;;;;;;;19.27;100;95850.58;;;;
2021/08/14 02:32:40;;;;;;;14.8;8.6;;;;;;;19.27;100;95850.58;;;;
2021/08/14 02:33:40;;;;;;;12.6;8.799998;;;;;;;19.1;100;95847.33;;;;
2021/08/14 02:34:41;;;;;;;12.6;8.799998;;;;;;;19.1;100;95847.33;;;;
2021/08/14 02:35:41;;;;;;;12.6;8.799998;;;;;;;19.1;100;95847.33;;;;
2021/08/14 02:36:42;;;;;;;12.6;8.799998;;;;;;;19.1;100;95847.33;;;;
2021/08/14 02:37:43;;;;;;;12.6;8.799998;;;;;;;19.1;100;95847.33;;;;
2021/08/14 02:38:43;;;;;;;12.6;8.799998;;;;;;;19.1;100;95847.33;;;;
2021/08/14 02:39:44;;;;;;;12.6;8.799998;;;;;;;19.1;100;95847.33;;;;
2021/08/14 02:40:46;;;;;;;12.6;8.799998;;;;;;;19.1;100;95847.33;;;;
2021/08/14 02:41:47;;;;;;;12.6;8.799998;;;;;;;19.1;100;95847.33;;;;
2021/08/14 02:42:48;;;;;;;12.6;8.799998;;;;;;;19.1;100;95847.33;;;;
2021/08/14 02:43:48;;;;;;;12.6;8.799998;;;;;;;19.1;100;95847.33;;;;
2021/08/14 02:44:49;;;;;;;13.45;9.699999;;;;;;;18.92;100;95848.42;;;;
2021/08/14 02:45:50;;;;;;;13.45;9.699999;;;;;;;18.92;100;95848.42;;;;
2021/08/14 02:46:50;;;;;;;13.45;9.699999;;;;;;;18.92;100;95848.42;;;;
2021/08/14 02:47:51;;;;;;;13.45;9.699999;;;;;;;18.92;100;95848.42;;;;
2021/08/14 02:48:51;;;;;;;13.45;9.699999;;;;;;;18.92;100;95848.42;;;;
2021/08/14 02:49:52;;;;;;;13.45;9.699999;;;;;;;18.92;100;95848.42;;;;
2021/08/14 02:50:52;;;;;;;13.45;9.699999;;;;;;;18.92;100;95848.42;;;;
2021/08/14 02:51:53;;;;;;;13.45;9.699999;;;;;;;18.92;100;95848.42;;;;
2021/08/14 02:52:53;;;;;;;13.45;9.699999;;;;;;;18.92;100;95848.42;;;;
2021/08/14 02:53:54;;;;;;;13.45;9.699999;;;;;;;18.92;100;95848.42;;;;
2021/08/14 02:54:55;;;;;;;15.6;9.749999;;;;;;;18.83;100;95839.12;;;;
2021/08/14 02:55:55;;;;;;;15.6;9.749999;;;;;;;18.83;100;95839.12;;;;
2021/08/14 02:56:56;;;;;;;15.6;9.749999;;;;;;;18.83;100;95839.12;;;;
2021/08/14 02:57:56;;;;;;;15.6;9.749999;;;;;;;18.83;100;95839.12;;;;
2021/08/14 02:58:57;;;;;;;15.6;9.749999;;;;;;;18.83;100;95839.12;;;;
2021/08/14 02:59:58;;;;;;;15.6;9.749999;;;;;;;18.83;100;95839.12;;;;
2021/08/14 03:00:58;;;;;;;15.6;9.749999;;;;;;;18.83;100;95839.12;;;;
2021/08/14 03:01:59;;;;;;;15.6;9.749999;;;;;;;18.83;100;95839.12;;;;
2021/08/14 03:02:59;;;;;;;15.6;9.749999;;;;;;;18.83;100;95839.12;;;;
2021/08/14 03:04:00;;;;;;;15.6;9.749999;;;;;;;18.83;100;95839.12;;;;
2021/08/14 03:05:00;;;;;;;15.6;9.749999;;;;;;;18.83;100;95839.12;;;;
2021/08/14 03:06:01;;;;;;;14;9.450001;;;;;;;18.66;100;95837.06;;;;
2021/08/14 03:07:01;;;;;;;14;9.450001;;;;;;;18.66;100;95837.06;;;;
2021/08/14 03:08:02;;;;;;;14;9.450001;;;;;;;18.66;100;95837.06;;;;
2021/08/14 03:09:09;;;;;;;14;9.450001;;;;;;;18.66;100;95837.06;;;;
2021/08/14 03:10:09;;;;;;;14;9.450001;;;;;;;18.66;100;95837.06;;;;
2021/08/14 03:11:10;;;;;;;14;9.450001;;;;;;;18.66;100;95837.06;;;;
2021/08/14 03:12:11;;;;;;;14;9.450001;;;;;;;18.66;100;95837.06;;;;
2021/08/14 03:13:11;;;;;;;14;9.450001;;;;;;;18.66;100;95837.06;;;;
2021/08/14 03:14:14;;;;;;;14;9.450001;;;;;;;18.66;100;95837.06;;;;
2021/08/14 03:15:14;;;;;;;14;9.450001;;;;;;;18.66;100;95837.06;;;;
2021/08/14 03:16:15;;;;;;;13.95;9.95;;;;;;;18.5;100;95838.14;;;;
2021/08/14 03:17:16;;;;;;;13.95;9.95;;;;;;;18.5;100;95838.14;;;;
2021/08/14 03:18:17;;;;;;;13.95;9.95;;;;;;;18.5;100;95838.14;;;;
2021/08/14 03:19:17;;;;;;;13.95;9.95;;;;;;;18.5;100;95838.14;;;;
2021/08/14 03:20:17;;;;;;;13.95;9.95;;;;;;;18.5;100;95838.14;;;;
2021/08/14 03:21:18;;;;;;;13.95;9.95;;;;;;;18.5;100;95838.14;;;;
2021/08/14 03:22:18;;;;;;;13.95;9.95;;;;;;;18.5;100;95838.14;;;;
2021/08/14 03:23:19;;;;;;;13.95;9.95;;;;;;;18.5;100;95838.14;;;;
2021/08/14 03:24:20;;;;;;;13.95;9.95;;;;;;;18.5;100;95838.14;;;;
2021/08/14 03:25:20;;;;;;;13.95;9.95;;;;;;;18.5;100;95838.14;;;;
2021/08/14 03:26:21;;;;;;;13.95;9.95;;;;;;;18.5;100;95838.14;;;;
2021/08/14 03:27:21;;;;;;;12.25;9.349999;;;;;;;18.38;100;95834.83;;;;
2021/08/14 03:28:22;;;;;;;12.25;9.349999;;;;;;;18.38;100;95834.83;;;;
2021/08/14 03:29:23;;;;;;;12.25;9.349999;;;;;;;18.38;100;95834.83;;;;
2021/08/14 03:30:23;;;;;;;12.25;9.349999;;;;;;;18.38;100;95834.83;;;;
2021/08/14 03:31:24;;;;;;;12.25;9.349999;;;;;;;18.38;100;95834.83;;;;
2021/08/14 03:32:24;;;;;;;12.25;9.349999;;;;;;;18.38;100;95834.83;;;;
2021/08/14 03:33:25;;;;;;;12.25;9.349999;;;;;;;18.38;100;95834.83;;;;
2021/08/14 03:34:25;;;;;;;12.25;9.349999;;;;;;;18.38;100;95834.83;;;;
2021/08/14 03:35:26;;;;;;;12.25;9.349999;;;;;;;18.38;100;95834.83;;;;
2021/08/14 03:36:27;;;;;;;12.25;9.349999;;;;;;;18.38;100;95834.83;;;;
2021/08/14 03:37:27;;;;;;;13.35;10.4;;;;;;;18.29;100;95829.61;;;;
2021/08/14 03:38:28;;;;;;;13.35;10.4;;;;;;;18.29;100;95829.61;;;;
2021/08/14 03:39:28;;;;;;;13.35;10.4;;;;;;;18.29;100;95829.61;;;;
2021/08/14 03:40:29;;;;;;;13.35;10.4;;;;;;;18.29;100;95829.61;;;;
2021/08/14 03:41:29;;;;;;;13.35;10.4;;;;;;;18.29;100;95829.61;;;;
2021/08/14 03:42:30;;;;;;;13.35;10.4;;;;;;;18.29;100;95829.61;;;;
2021/08/14 03:43:30;;;;;;;13.35;10.4;;;;;;;18.29;100;95829.61;;;;
2021/08/14 03:44:31;;;;;;;13.35;10.4;;;;;;;18.29;100;95829.61;;;;
2021/08/14 03:45:31;;;;;;;13.35;10.4;;;;;;;18.29;100;95829.61;;;;
2021/08/14 03:46:32;;;;;;;13.35;10.4;;;;;;;18.29;100;95829.61;;;;
2021/08/14 03:47:33;;;;;;;13.35;10.4;;;;;;;18.29;100;95829.61;;;;
2021/08/14 03:48:34;;;;;;;13.35;10.4;;;;;;;18.29;100;95829.61;;;;
2021/08/14 03:49:34;;;;;;;13.35;10.4;;;;;;;18.29;100;95829.61;;;;
2021/08/14 03:50:35;;;;;;;13.35;10.4;;;;;;;18.29;100;95829.61;;;;
2021/08/14 03:51:35;;;;;;;13.35;10.4;;;;;;;18.29;100;95829.61;;;;
2021/08/14 03:52:36;;;;;;;13.35;10.4;;;;;;;18.29;100;95829.61;;;;
2021/08/14 03:53:37;;;;;;;13.35;10.4;;;;;;;18.29;100;95829.61;;;;
2021/08/14 03:54:37;;;;;;;13.35;10.4;;;;;;;18.29;100;95829.61;;;;
2021/08/14 03:55:38;;;;;;;13.35;10.4;;;;;;;18.29;100;95829.61;;;;
2021/08/14 03:56:38;;;;;;;13.35;10.4;;;;;;;18.29;100;95829.61;;;;
2021/08/14 03:57:39;;;;;;;13.35;10.4;;;;;;;18.29;100;95829.61;;;;
2021/08/14 03:58:39;;;;;;;15.9;11.3;;;;;;;18.09;100;95825.05;;;;
2021/08/14 03:59:40;;;;;;;15.9;11.3;;;;;;;18.09;100;95825.05;;;;
2021/08/14 04:00:40;;;;;;;15.9;11.3;;;;;;;18.09;100;95825.05;;;;
2021/08/14 04:01:41;;;;;;;15.9;11.3;;;;;;;18.09;100;95825.05;;;;
2021/08/14 04:02:42;;;;;;;15.9;11.3;;;;;;;18.09;100;95825.05;;;;
2021/08/14 04:03:42;;;;;;;15.9;11.3;;;;;;;18.09;100;95825.05;;;;
2021/08/14 04:04:43;;;;;;;15.9;11.3;;;;;;;18.09;100;95825.05;;;;
2021/08/14 04:05:43;;;;;;;15.9;11.3;;;;;;;18.09;100;95825.05;;;;
2021/08/14 04:06:44;;;;;;;15.9;11.3;;;;;;;18.09;100;95825.05;;;;
2021/08/14 04:07:44;;;;;;;15.9;11.3;;;;;;;18.09;100;95825.05;;;;
2021/08/14 04:08:45;;;;;;;15.9;11.3;;;;;;;18.09;100;95825.05;;;;
2021/08/14 04:09:45;;;;;;;15.5;10.6;;;;;;;18.02;100;95828.58;;;;
2021/08/14 04:10:46;;;;;;;15.5;10.6;;;;;;;18.02;100;95828.58;;;;
2021/08/14 04:11:46;;;;;;;15.5;10.6;;;;;;;18.02;100;95828.58;;;;
2021/08/14 04:12:47;;;;;;;15.5;10.6;;;;;;;18.02;100;95828.58;;;;
2021/08/14 04:13:48;;;;;;;15.5;10.6;;;;;;;18.02;100;95828.58;;;;
2021/08/14 04:14:48;;;;;;;15.5;10.6;;;;;;;18.02;100;95828.58;;;;
2021/08/14 04:15:49;;;;;;;15.5;10.6;;;;;;;18.02;100;95828.58;;;;
2021/08/14 04:16:49;;;;;;;15.5;10.6;;;;;;;18.02;100;95828.58;;;;
2021/08/14 04:17:50;;;;;;;15.5;10.6;;;;;;;18.02;100;95828.58;;;;
2021/08/14 04:18:50;;;;;;;15.5;10.6;;;;;;;18.02;100;95828.58;;;;
2021/08/14 04:19:51;;;;;;;15.5;10.6;;;;;;;18.02;100;95828.58;;;;
2021/08/14 04:20:51;;;;;;;14.9;10.9;;;;;;;17.95;100;95844.25;;;;
2021/08/14 04:21:52;;;;;;;14.9;10.9;;;;;;;17.95;100;95844.25;;;;
2021/08/14 04:22:52;;;;;;;14.9;10.9;;;;;;;17.95;100;95844.25;;;;
2021/08/14 04:23:53;;;;;;;14.9;10.9;;;;;;;17.95;100;95844.25;;;;
2021/08/14 04:24:54;;;;;;;14.9;10.9;;;;;;;17.95;100;95844.25;;;;
2021/08/14 04:25:55;;;;;;;14.9;10.9;;;;;;;17.95;100;95844.25;;;;
2021/08/14 04:26:55;;;;;;;14.9;10.9;;;;;;;17.95;100;95844.25;;;;
2021/08/14 04:27:56;;;;;;;14.9;10.9;;;;;;;17.95;100;95844.25;;;;
2021/08/14 04:28:57;;;;;;;14.9;10.9;;;;;;;17.95;100;95844.25;;;;
2021/08/14 04:30:00;;;;;;;14.9;10.9;;;;;;;17.95;100;95844.25;;;;
2021/08/14 04:31:01;;;;;;;15;11.4;;;;;;;17.92;100;95846.7;;;;
2021/08/14 04:32:01;;;;;;;15;11.4;;;;;;;17.92;100;95846.7;;;;
2021/08/14 04:33:03;;;;;;;15;11.4;;;;;;;17.92;100;95846.7;;;;
2021/08/14 04:34:03;;;;;;;15;11.4;;;;;;;17.92;100;95846.7;;;;
2021/08/14 04:35:04;;;;;;;15;11.4;;;;;;;17.92;100;95846.7;;;;
2021/08/14 04:36:07;;;;;;;15;11.4;;;;;;;17.92;100;95846.7;;;;
2021/08/14 04:37:08;;;;;;;15;11.4;;;;;;;17.92;100;95846.7;;;;
2021/08/14 04:38:08;;;;;;;15;11.4;;;;;;;17.92;100;95846.7;;;;
2021/08/14 04:39:09;;;;;;;15;11.4;;;;;;;17.92;100;95846.7;;;;
2021/08/14 04:40:09;;;;;;;15;11.4;;;;;;;17.92;100;95846.7;;;;
2021/08/14 04:41:14;;;;;;;15;11.4;;;;;;;17.92;100;95846.7;;;;
2021/08/14 04:42:14;;;;;;;16.1;11.85;;;;;;;18.01;100;95856.44;;;;
2021/08/14 04:43:15;;;;;;;16.1;11.85;;;;;;;18.01;100;95856.44;;;;
2021/08/14 04:44:15;;;;;;;16.1;11.85;;;;;;;18.01;100;95856.44;;;;
2021/08/14 04:45:16;;;;;;;16.1;11.85;;;;;;;18.01;100;95856.44;;;;
2021/08/14 04:46:17;;;;;;;16.1;11.85;;;;;;;18.01;100;95856.44;;;;
2021/08/14 04:47:17;;;;;;;16.1;11.85;;;;;;;18.01;100;95856.44;;;;
2021/08/14 04:48:17;;;;;;;16.1;11.85;;;;;;;18.01;100;95856.44;;;;
2021/08/14 04:49:18;;;;;;;16.1;11.85;;;;;;;18.01;100;95856.44;;;;
2021/08/14 04:50:18;;;;;;;16.1;11.85;;;;;;;18.01;100;95856.44;;;;
2021/08/14 04:51:19;;;;;;;16.1;11.85;;;;;;;18.01;100;95856.44;;;;
2021/08/14 04:52:20;;;;;;;11.9;10.6;;;;;;;18.16;100;95863.75;;;;
2021/08/14 04:53:20;;;;;;;11.9;10.6;;;;;;;18.16;100;95863.75;;;;
2021/08/14 04:54:20;;;;;;;11.9;10.6;;;;;;;18.16;100;95863.75;;;;
2021/08/14 04:55:21;;;;;;;11.9;10.6;;;;;;;18.16;100;95863.75;;;;
2021/08/14 04:56:22;;;;;;;11.9;10.6;;;;;;;18.16;100;95863.75;;;;
2021/08/14 04:57:22;;;;;;;11.9;10.6;;;;;;;18.16;100;95863.75;;;;
2021/08/14 04:58:23;;;;;;;11.9;10.6;;;;;;;18.16;100;95863.75;;;;
2021/08/14 04:59:23;;;;;;;11.9;10.6;;;;;;;18.16;100;95863.75;;;;
2021/08/14 05:00:24;;;;;;;11.9;10.6;;;;;;;18.16;100;95863.75;;;;
2021/08/14 05:01:24;;;;;;;11.9;10.6;;;;;;;18.16;100;95863.75;;;;
2021/08/14 05:02:25;;;;;;;11.9;10.6;;;;;;;18.16;100;95863.75;;;;
2021/08/14 05:03:27;;;;;;;15.9;10.9;;;;;;;18.4;100;95864.62;;;;
2021/08/14 05:04:28;;;;;;;15.9;10.9;;;;;;;18.4;100;95864.62;;;;
2021/08/14 05:05:29;;;;;;;15.9;10.9;;;;;;;18.4;100;95864.62;;;;
2021/08/14 05:06:29;;;;;;;15.9;10.9;;;;;;;18.4;100;95864.62;;;;
2021/08/14 05:07:30;;;;;;;15.9;10.9;;;;;;;18.4;100;95864.62;;;;
2021/08/14 05:08:30;;;;;;;15.9;10.9;;;;;;;18.4;100;95864.62;;;;
2021/08/14 05:09:31;;;;;;;15.9;10.9;;;;;;;18.4;100;95864.62;;;;
2021/08/14 05:10:35;;;;;;;15.9;10.9;;;;;;;18.4;100;95864.62;;;;
2021/08/14 05:11:35;;;;;;;15.9;10.9;;;;;;;18.4;100;95864.62;;;;
2021/08/14 05:12:36;;;;;;;15.9;10.9;;;;;;;18.4;100;95864.62;;;;
2021/08/14 05:13:36;;;;;;;12.65;9.85;;;;;;;18.75;100;95869.21;;;;
2021/08/14 05:14:37;;;;;;;12.65;9.85;;;;;;;18.75;100;95869.21;;;;
2021/08/14 05:15:37;;;;;;;12.65;9.85;;;;;;;18.75;100;95869.21;;;;
2021/08/14 05:16:38;;;;;;;12.65;9.85;;;;;;;18.75;100;95869.21;;;;
2021/08/14 05:17:39;;;;;;;12.65;9.85;;;;;;;18.75;100;95869.21;;;;
2021/08/14 05:18:39;;;;;;;12.65;9.85;;;;;;;18.75;100;95869.21;;;;
2021/08/14 05:19:40;;;;;;;12.65;9.85;;;;;;;18.75;100;95869.21;;;;
2021/08/14 05:20:40;;;;;;;12.65;9.85;;;;;;;18.75;100;95869.21;;;;
2021/08/14 05:21:41;;;;;;;12.65;9.85;;;;;;;18.75;100;95869.21;;;;
2021/08/14 05:22:41;;;;;;;12.65;9.85;;;;;;;18.75;100;95869.21;;;;
2021/08/14 05:23:42;;;;;;;12.65;9.85;;;;;;;18.75;100;95869.21;;;;
2021/08/14 05:24:42;;;;;;;12.45;9.600001;;;;;;;19.15;100;95862.92;;;;
2021/08/14 05:25:43;;;;;;;12.45;9.600001;;;;;;;19.15;100;95862.92;;;;
2021/08/14 05:26:44;;;;;;;12.45;9.600001;;;;;;;19.15;100;95862.92;;;;
2021/08/14 05:27:44;;;;;;;12.45;9.600001;;;;;;;19.15;100;95862.92;;;;
2021/08/14 05:28:45;;;;;;;12.45;9.600001;;;;;;;19.15;100;95862.92;;;;
2021/08/14 05:29:45;;;;;;;12.45;9.600001;;;;;;;19.15;100;95862.92;;;;
2021/08/14 05:30:45;;;;;;;12.45;9.600001;;;;;;;19.15;100;95862.92;;;;
2021/08/14 05:31:46;;;;;;;12.45;9.600001;;;;;;;19.15;100;95862.92;;;;
2021/08/14 05:32:47;;;;;;;12.45;9.600001;;;;;;;19.15;100;95862.92;;;;
2021/08/14 05:33:47;;;;;;;12.45;9.600001;;;;;;;19.15;100;95862.92;;;;
2021/08/14 05:34:47;;;;;;;12.1;9.349999;;;;;;;19.45;100;95869.2;;;;
2021/08/14 05:35:48;;;;;;;12.1;9.349999;;;;;;;19.45;100;95869.2;;;;
2021/08/14 05:36:49;;;;;;;12.1;9.349999;;;;;;;19.45;100;95869.2;;;;
2021/08/14 05:37:49;;;;;;;12.1;9.349999;;;;;;;19.45;100;95869.2;;;;
2021/08/14 05:38:50;;;;;;;12.1;9.349999;;;;;;;19.45;100;95869.2;;;;
2021/08/14 05:39:50;;;;;;;12.1;9.349999;;;;;;;19.45;100;95869.2;;;;
2021/08/14 05:40:51;;;;;;;12.1;9.349999;;;;;;;19.45;100;95869.2;;;;
2021/08/14 05:41:52;;;;;;;12.1;9.349999;;;;;;;19.45;100;95869.2;;;;
2021/08/14 05:42:52;;;;;;;12.1;9.349999;;;;;;;19.45;100;95869.2;;;;
2021/08/14 05:43:53;;;;;;;12.1;9.349999;;;;;;;19.45;100;95869.2;;;;
2021/08/14 05:44:53;;;;;;;12.1;9.349999;;;;;;;19.45;100;95869.2;;;;
2021/08/14 05:45:54;;;;;;;12.1;9.349999;;;;;;;19.45;100;95869.2;;;;
2021/08/14 05:46:55;;;;;;;12.1;9.349999;;;;;;;19.45;100;95869.2;;;;
2021/08/14 05:47:55;;;;;;;12.1;9.349999;;;;;;;19.45;100;95869.2;;;;
2021/08/14 05:48:56;;;;;;;12.1;9.349999;;;;;;;19.45;100;95869.2;;;;
2021/08/14 05:49:56;;;;;;;12.1;9.349999;;;;;;;19.45;100;95869.2;;;;
2021/08/14 05:50:57;;;;;;;12.1;9.349999;;;;;;;19.45;100;95869.2;;;;
2021/08/14 05:51:58;;;;;;;12.1;9.349999;;;;;;;19.45;100;95869.2;;;;